createdAt,value
2022-10-05T00:01:39.829Z,77.90
2022-10-05T00:04:18.604Z,77.90
2022-10-05T00:07:02.266Z,77.90
2022-10-05T00:09:37.134Z,77.80
2022-10-05T00:12:17.146Z,77.60
2022-10-05T00:14:58.249Z,77.20
2022-10-05T00:17:33.145Z,76.90
2022-10-05T00:20:25.455Z,76.90
2022-10-05T00:23:07.939Z,76.70
2022-10-05T00:25:42.810Z,76.60
2022-10-05T00:28:26.948Z,76.70
2022-10-05T00:31:01.910Z,76.70
2022-10-05T00:33:36.746Z,76.50
2022-10-05T00:36:11.881Z,76.40
2022-10-05T00:38:46.965Z,76.40
2022-10-05T00:41:29.324Z,76.50
2022-10-05T00:44:45.094Z,76.50
2022-10-05T00:47:54.792Z,76.90
2022-10-05T00:50:42.975Z,77.70
2022-10-05T00:53:43.345Z,78.20
2022-10-05T00:56:45.813Z,78.40
2022-10-05T00:59:59.108Z,78.40
2022-10-05T01:02:47.708Z,78.80
2022-10-05T01:05:56.760Z,78.80
2022-10-05T01:08:46.759Z,78.90
2022-10-05T01:11:43.563Z,79.00
2022-10-05T01:15:09.974Z,79.10
2022-10-05T01:18:17.139Z,79.10
2022-10-05T01:21:06.512Z,79.20
2022-10-05T01:24:07.117Z,79.20
2022-10-05T01:27:07.798Z,79.10
2022-10-05T01:29:59.450Z,79.20
2022-10-05T01:33:05.787Z,79.50
2022-10-05T01:36:05.191Z,79.50
2022-10-05T01:39:16.465Z,79.40
2022-10-05T01:42:26.611Z,79.40
2022-10-05T01:45:25.679Z,79.40
2022-10-05T01:48:16.599Z,79.20
2022-10-05T01:51:04.000Z,79.40
2022-10-05T01:54:12.565Z,79.60
2022-10-05T01:57:18.147Z,79.70
2022-10-05T02:00:11.322Z,79.70
2022-10-05T02:02:57.495Z,79.70
2022-10-05T02:05:40.223Z,79.70
2022-10-05T02:08:27.536Z,79.70
2022-10-05T02:11:09.490Z,79.80
2022-10-05T02:13:54.279Z,79.90
2022-10-05T02:16:33.992Z,79.70
2022-10-05T02:19:32.480Z,79.80
2022-10-05T02:22:13.453Z,79.70
2022-10-05T02:24:55.227Z,79.80
2022-10-05T02:28:08.911Z,79.80
2022-10-05T02:31:00.273Z,80.00
2022-10-05T02:33:36.282Z,80.20
2022-10-05T02:36:24.340Z,80.30
2022-10-05T02:39:25.022Z,80.40
2022-10-05T02:42:32.940Z,80.20
2022-10-05T02:45:07.828Z,80.20
2022-10-05T02:48:34.762Z,80.10
2022-10-05T02:51:58.527Z,80.00
2022-10-05T02:55:02.584Z,79.80
2022-10-05T02:57:54.941Z,79.70
2022-10-05T03:00:39.060Z,79.70
2022-10-05T03:03:23.108Z,79.40
2022-10-05T03:06:26.087Z,79.60
2022-10-05T03:09:06.293Z,79.60
2022-10-05T03:12:26.674Z,79.40
2022-10-05T03:15:23.062Z,79.10
2022-10-05T03:18:15.925Z,79.00
2022-10-05T03:21:01.800Z,79.10
2022-10-05T03:23:49.580Z,79.10
2022-10-05T03:27:18.624Z,79.10
2022-10-05T03:30:06.419Z,79.10
2022-10-05T03:32:55.874Z,78.80
2022-10-05T03:36:07.131Z,78.80
2022-10-05T03:38:51.676Z,78.80
2022-10-05T03:41:42.975Z,78.70
2022-10-05T03:44:52.927Z,78.80
2022-10-05T03:47:36.890Z,78.90
2022-10-05T03:50:41.514Z,79.10
2022-10-05T03:53:32.294Z,79.40
2022-10-05T03:56:20.183Z,79.50
2022-10-05T03:59:16.732Z,79.50
2022-10-05T04:02:01.374Z,79.70
2022-10-05T04:04:50.947Z,80.00
2022-10-05T04:07:46.871Z,80.20
2022-10-05T04:10:29.976Z,80.20
2022-10-05T04:13:29.398Z,80.40
2022-10-05T04:16:14.878Z,80.30
2022-10-05T04:19:00.285Z,80.00
2022-10-05T04:21:51.388Z,80.20
2022-10-05T04:25:21.197Z,80.30
2022-10-05T04:28:32.578Z,80.40
2022-10-05T04:31:20.983Z,80.30
2022-10-05T04:34:27.059Z,80.20
2022-10-05T04:37:08.551Z,80.20
2022-10-05T04:40:29.029Z,80.20
2022-10-05T04:43:50.963Z,80.20
2022-10-05T04:47:08.895Z,80.40
2022-10-05T04:50:00.170Z,80.70
2022-10-05T04:53:00.616Z,80.80
2022-10-05T04:56:03.223Z,80.90
2022-10-05T04:58:57.070Z,80.90
2022-10-05T05:02:03.734Z,81.10
2022-10-05T05:05:17.076Z,81.10
2022-10-05T05:08:25.117Z,81.40
2022-10-05T05:11:29.320Z,81.30
2022-10-05T05:14:32.054Z,81.20
2022-10-05T05:17:34.980Z,81.00
2022-10-05T05:20:48.928Z,80.70
2022-10-05T05:23:43.435Z,81.60
2022-10-05T05:26:55.685Z,81.60
2022-10-05T05:29:57.931Z,81.60
2022-10-05T05:33:02.310Z,82.00
2022-10-05T05:36:18.311Z,82.30
2022-10-05T05:39:29.500Z,82.50
2022-10-05T05:42:39.241Z,82.50
2022-10-05T05:45:43.158Z,82.50
2022-10-05T05:48:43.223Z,82.60
2022-10-05T05:51:40.253Z,82.50
2022-10-05T05:54:37.393Z,82.30
2022-10-05T05:57:52.052Z,82.20
2022-10-05T06:00:36.610Z,82.10
2022-10-05T06:03:36.030Z,81.90
2022-10-05T06:06:16.847Z,81.70
2022-10-05T06:09:00.661Z,81.60
2022-10-05T06:12:05.691Z,81.50
2022-10-05T06:14:49.714Z,81.30
2022-10-05T06:17:36.804Z,81.20
2022-10-05T06:20:36.715Z,81.10
2022-10-05T06:23:24.002Z,80.00
2022-10-05T06:26:24.841Z,79.80
2022-10-05T06:29:07.543Z,79.90
2022-10-05T06:32:05.966Z,79.70
2022-10-05T06:35:45.959Z,79.70
2022-10-05T06:39:02.808Z,79.80
2022-10-05T06:41:54.213Z,79.80
2022-10-05T06:45:00.731Z,79.90
2022-10-05T06:48:05.418Z,80.10
2022-10-05T06:51:44.284Z,80.10
2022-10-05T06:55:00.999Z,79.90
2022-10-05T06:58:12.214Z,80.00
2022-10-05T07:00:54.521Z,79.60
2022-10-05T07:04:16.013Z,79.50
2022-10-05T07:07:01.730Z,79.50
2022-10-05T07:09:56.246Z,79.20
2022-10-05T07:12:44.595Z,79.00
2022-10-05T07:15:54.691Z,78.90
2022-10-05T07:18:47.797Z,78.70
2022-10-05T07:21:52.448Z,78.80
2022-10-05T07:24:38.285Z,78.40
2022-10-05T07:27:24.143Z,78.10
2022-10-05T07:30:11.803Z,78.10
2022-10-05T07:33:21.105Z,77.90
2022-10-05T07:36:54.582Z,77.60
2022-10-05T07:40:00.295Z,77.40
2022-10-05T07:43:00.482Z,77.00
2022-10-05T07:45:48.019Z,76.80
2022-10-05T07:48:57.323Z,76.90
2022-10-05T07:52:11.302Z,76.70
2022-10-05T07:55:13.019Z,76.50
2022-10-05T07:58:33.809Z,76.40
2022-10-05T08:01:29.646Z,76.30
2022-10-05T08:04:27.020Z,76.20
2022-10-05T08:07:07.059Z,75.80
2022-10-05T08:10:00.968Z,75.60
2022-10-05T08:12:51.625Z,75.40
2022-10-05T08:15:43.130Z,74.90
2022-10-05T08:18:55.285Z,74.40
2022-10-05T08:21:52.048Z,73.60
2022-10-05T08:24:55.376Z,73.20
2022-10-05T08:27:49.957Z,72.80
2022-10-05T08:30:25.304Z,72.40
2022-10-05T08:33:10.243Z,72.00
2022-10-05T08:35:55.784Z,71.60
2022-10-05T08:38:33.976Z,71.00
2022-10-05T08:41:59.497Z,69.20
2022-10-05T08:44:49.449Z,68.90
2022-10-05T08:47:55.911Z,68.20
2022-10-05T08:51:04.703Z,68.20
2022-10-05T08:54:46.021Z,66.70
2022-10-05T08:57:56.597Z,66.50
2022-10-05T09:01:11.966Z,66.40
2022-10-05T09:04:14.447Z,66.40
2022-10-05T09:07:09.896Z,65.30
2022-10-05T09:10:04.807Z,64.70
2022-10-05T09:13:13.109Z,64.10
2022-10-05T09:16:28.309Z,63.70
2022-10-05T09:19:47.545Z,62.70
2022-10-05T09:22:53.847Z,62.20
2022-10-05T09:25:58.713Z,61.70
2022-10-05T09:29:29.602Z,61.20
2022-10-05T09:32:40.247Z,60.20
2022-10-05T09:36:03.048Z,59.50
2022-10-05T09:38:44.024Z,59.40
2022-10-05T09:41:39.531Z,58.40
2022-10-05T09:45:01.626Z,57.90
2022-10-05T09:48:13.889Z,57.30
2022-10-05T09:51:26.619Z,56.70
2022-10-05T09:54:37.057Z,56.00
2022-10-05T09:57:53.246Z,55.30
2022-10-05T10:01:29.138Z,54.20
2022-10-05T10:04:14.396Z,52.80
2022-10-05T10:06:55.087Z,51.10
2022-10-05T10:10:09.040Z,51.00
2022-10-05T10:13:04.358Z,50.20
2022-10-05T10:16:06.781Z,49.70
2022-10-05T10:19:03.237Z,48.60
2022-10-05T10:22:09.468Z,48.50
2022-10-05T10:25:38.024Z,48.10
2022-10-05T10:29:01.909Z,47.60
2022-10-05T10:32:01.731Z,46.80
2022-10-05T10:35:07.796Z,46.40
2022-10-05T10:38:40.633Z,45.90
2022-10-05T10:42:12.106Z,45.30
2022-10-05T10:45:45.427Z,44.90
2022-10-05T10:48:29.348Z,44.70
2022-10-05T10:51:44.274Z,44.20
2022-10-05T10:54:19.135Z,43.90
2022-10-05T10:57:10.133Z,43.50
2022-10-05T11:00:21.716Z,43.30
2022-10-05T11:03:46.124Z,42.90
2022-10-05T11:07:04.496Z,42.30
2022-10-05T11:10:49.439Z,42.10
2022-10-05T11:14:04.818Z,41.60
2022-10-05T11:17:03.275Z,41.00
2022-10-05T11:20:03.701Z,39.70
2022-10-05T11:22:58.639Z,39.80
2022-10-05T11:25:46.508Z,39.40
2022-10-05T11:29:11.200Z,39.00
2022-10-05T11:32:33.930Z,38.90
2022-10-05T11:35:24.705Z,38.40
2022-10-05T11:38:48.233Z,38.40
2022-10-05T11:41:32.919Z,38.60
2022-10-05T11:44:28.856Z,38.60
2022-10-05T11:47:30.468Z,38.70
2022-10-05T11:50:20.859Z,38.50
2022-10-05T11:53:32.294Z,38.70
2022-10-05T11:56:34.629Z,37.40
2022-10-05T11:59:18.994Z,36.40
2022-10-05T12:02:21.905Z,34.70
2022-10-05T12:05:11.728Z,34.90
2022-10-05T12:08:11.291Z,35.00
2022-10-05T12:11:10.788Z,35.20
2022-10-05T12:14:00.472Z,35.10
2022-10-05T12:17:17.823Z,34.30
2022-10-05T12:19:59.591Z,34.30
2022-10-05T12:23:20.896Z,33.00
2022-10-05T12:26:08.180Z,33.30
2022-10-05T12:29:13.271Z,33.60
2022-10-05T12:32:33.969Z,32.80
2022-10-05T12:35:47.450Z,33.60
2022-10-05T12:38:35.301Z,33.10
2022-10-05T12:41:28.626Z,33.00
2022-10-05T12:44:43.184Z,32.40
2022-10-05T12:47:58.895Z,31.60
2022-10-05T12:50:42.531Z,31.40
2022-10-05T12:53:49.378Z,32.20
2022-10-05T12:56:37.373Z,31.50
2022-10-05T12:59:46.077Z,31.50
2022-10-05T13:03:08.535Z,31.70
2022-10-05T13:06:14.698Z,33.80
2022-10-05T13:08:58.850Z,32.10
2022-10-05T13:11:45.612Z,32.40
2022-10-05T13:14:35.624Z,32.00
2022-10-05T13:17:21.609Z,32.50
2022-10-05T13:20:02.442Z,31.00
2022-10-05T13:22:43.905Z,30.40
2022-10-05T13:25:45.908Z,30.20
2022-10-05T13:28:47.561Z,29.90
2022-10-05T13:31:29.359Z,31.60
2022-10-05T13:34:33.407Z,30.00
2022-10-05T13:37:20.449Z,29.30
2022-10-05T13:40:29.146Z,29.30
2022-10-05T13:43:25.313Z,29.30
2022-10-05T13:46:44.571Z,29.30
2022-10-05T13:49:34.882Z,29.00
2022-10-05T13:52:54.339Z,28.80
2022-10-05T13:55:50.004Z,29.30
2022-10-05T13:58:45.505Z,30.50
2022-10-05T14:01:41.666Z,30.10
2022-10-05T14:04:24.831Z,30.70
2022-10-05T14:07:34.989Z,30.00
2022-10-05T14:10:18.364Z,30.00
2022-10-05T14:12:55.240Z,29.90
2022-10-05T14:15:41.389Z,30.50
2022-10-05T14:18:24.922Z,30.10
2022-10-05T14:21:08.088Z,30.00
2022-10-05T14:23:43.247Z,30.00
2022-10-05T14:26:25.675Z,30.10
2022-10-05T14:29:35.812Z,30.20
2022-10-05T14:32:17.027Z,30.40
2022-10-05T14:35:12.972Z,30.40
2022-10-05T14:37:53.919Z,30.40
2022-10-05T14:40:37.438Z,30.70
2022-10-05T14:43:21.540Z,30.80
2022-10-05T14:46:03.434Z,31.20
2022-10-05T14:48:45.827Z,31.10
2022-10-05T14:51:31.948Z,31.60
2022-10-05T14:54:32.259Z,30.80
2022-10-05T14:57:29.231Z,32.40
2022-10-05T15:00:14.292Z,32.00
2022-10-05T15:03:19.797Z,31.30
2022-10-05T15:06:01.537Z,31.10
2022-10-05T15:09:17.278Z,31.50
2022-10-05T15:11:57.830Z,30.70
2022-10-05T15:14:43.346Z,31.20
2022-10-05T15:17:34.247Z,31.50
2022-10-05T15:20:26.558Z,31.40
2022-10-05T15:23:30.698Z,31.00
2022-10-05T15:26:44.937Z,31.20
2022-10-05T15:29:52.036Z,31.60
2022-10-05T15:33:08.927Z,31.10
2022-10-05T15:36:08.191Z,31.20
2022-10-05T15:39:35.247Z,31.20
2022-10-05T15:42:38.261Z,31.40
2022-10-05T15:45:32.220Z,31.30
2022-10-05T15:48:46.386Z,31.20
2022-10-05T15:51:40.809Z,31.10
2022-10-05T15:54:49.809Z,31.20
2022-10-05T15:57:39.667Z,31.20
2022-10-05T16:00:22.659Z,31.80
2022-10-05T16:03:30.349Z,32.40
2022-10-05T16:06:42.635Z,32.50
2022-10-05T16:09:47.331Z,32.00
2022-10-05T16:12:40.576Z,32.40
2022-10-05T16:15:26.515Z,32.90
2022-10-05T16:18:36.581Z,33.80
2022-10-05T16:21:51.526Z,34.00
2022-10-05T16:25:11.530Z,34.20
2022-10-05T16:28:29.905Z,34.40
2022-10-05T16:31:37.494Z,35.10
2022-10-05T16:34:33.452Z,35.10
2022-10-05T16:37:31.986Z,34.80
2022-10-05T16:40:33.930Z,32.90
2022-10-05T16:43:30.263Z,32.00
2022-10-05T16:46:37.274Z,31.10
2022-10-05T16:49:30.555Z,31.00
2022-10-05T16:52:19.341Z,31.10
2022-10-05T16:55:02.808Z,31.30
2022-10-05T16:57:56.683Z,31.30
2022-10-05T17:01:00.771Z,31.40
2022-10-05T17:04:13.245Z,31.70
2022-10-05T17:07:14.950Z,31.60
2022-10-05T17:10:38.269Z,31.30
2022-10-05T17:14:10.785Z,31.10
2022-10-05T17:17:05.630Z,30.80
2022-10-05T17:20:15.632Z,30.70
2022-10-05T17:23:29.264Z,30.70
2022-10-05T17:26:09.782Z,30.50
2022-10-05T17:29:09.479Z,30.60
2022-10-05T17:32:06.139Z,30.60
2022-10-05T17:35:01.073Z,30.60
2022-10-05T17:37:42.611Z,30.80
2022-10-05T17:40:39.175Z,30.80
2022-10-05T17:43:17.126Z,30.90
2022-10-05T17:45:55.710Z,30.80
2022-10-05T17:48:48.930Z,30.90
2022-10-05T17:51:48.027Z,31.00
2022-10-05T17:55:08.218Z,30.90
2022-10-05T17:57:43.194Z,30.90
2022-10-05T18:00:35.399Z,31.00
2022-10-05T18:03:44.546Z,31.00
2022-10-05T18:06:35.391Z,31.10
2022-10-05T18:09:22.437Z,31.20
2022-10-05T18:12:16.177Z,31.40
2022-10-05T18:14:57.331Z,31.50
2022-10-05T18:17:41.064Z,31.30
2022-10-05T18:20:23.928Z,31.50
2022-10-05T18:23:09.261Z,31.70
2022-10-05T18:26:15.952Z,31.90
2022-10-05T18:29:14.228Z,32.20
2022-10-05T18:32:02.846Z,32.50
2022-10-05T18:34:57.697Z,32.70
2022-10-05T18:37:57.629Z,32.70
2022-10-05T18:40:44.355Z,32.60
2022-10-05T18:43:51.071Z,32.70
2022-10-05T18:47:00.703Z,32.90
2022-10-05T18:50:24.379Z,33.10
2022-10-05T18:53:13.502Z,33.30
2022-10-05T18:56:02.239Z,33.40
2022-10-05T18:59:01.583Z,33.80
2022-10-05T19:02:06.248Z,33.90
2022-10-05T19:04:50.999Z,34.00
2022-10-05T19:07:59.322Z,34.10
2022-10-05T19:11:05.123Z,34.30
2022-10-05T19:14:01.153Z,34.60
2022-10-05T19:16:45.389Z,34.70
2022-10-05T19:19:43.823Z,34.90
2022-10-05T19:22:36.367Z,35.10
2022-10-05T19:25:59.712Z,35.20
2022-10-05T19:28:59.646Z,35.40
2022-10-05T19:31:50.266Z,35.70
2022-10-05T19:34:58.971Z,35.90
2022-10-05T19:37:45.571Z,36.10
2022-10-05T19:40:39.002Z,36.30
2022-10-05T19:43:32.594Z,36.50
2022-10-05T19:46:31.725Z,36.60
2022-10-05T19:49:10.599Z,36.80
2022-10-05T19:51:51.502Z,36.90
2022-10-05T19:54:31.039Z,37.00
2022-10-05T19:57:17.845Z,37.40
2022-10-05T19:59:57.878Z,37.60
2022-10-05T20:02:33.362Z,37.80
2022-10-05T20:05:08.709Z,38.00
2022-10-05T20:07:43.807Z,38.10
2022-10-05T20:10:29.326Z,38.30
2022-10-05T20:13:05.317Z,38.60
2022-10-05T20:15:58.801Z,38.60
2022-10-05T20:19:04.369Z,38.80
2022-10-05T20:22:00.423Z,39.00
2022-10-05T20:24:50.875Z,39.40
2022-10-05T20:27:49.288Z,39.60
2022-10-05T20:30:27.495Z,39.90
2022-10-05T20:33:04.668Z,40.00
2022-10-05T20:35:39.715Z,40.20
2022-10-05T20:38:14.664Z,40.30
2022-10-05T20:40:49.640Z,40.50
2022-10-05T20:43:24.652Z,40.60
2022-10-05T20:45:59.742Z,40.90
2022-10-05T20:48:36.062Z,41.10
2022-10-05T20:51:10.978Z,41.40
2022-10-05T20:53:46.262Z,41.70
2022-10-05T20:56:21.243Z,41.80
2022-10-05T20:58:56.350Z,41.90
2022-10-05T21:01:34.218Z,42.10
2022-10-05T21:04:09.644Z,42.20
2022-10-05T21:06:45.319Z,42.60
2022-10-05T21:09:21.514Z,42.80
2022-10-05T21:11:56.639Z,43.10
2022-10-05T21:14:34.297Z,43.30
2022-10-05T21:17:10.483Z,43.50
2022-10-05T21:19:46.467Z,43.50
2022-10-05T21:22:22.328Z,44.10
2022-10-05T21:24:58.404Z,44.00
2022-10-05T21:27:33.501Z,44.10
2022-10-05T21:30:09.397Z,44.50
2022-10-05T21:32:44.995Z,44.60
2022-10-05T21:35:20.072Z,44.40
2022-10-05T21:37:55.056Z,44.40
2022-10-05T21:40:30.031Z,44.30
2022-10-05T21:43:05.088Z,44.10
2022-10-05T21:45:40.562Z,44.20
2022-10-05T21:48:16.721Z,44.40
2022-10-05T21:50:51.635Z,44.90
2022-10-05T21:53:31.008Z,45.00
2022-10-05T21:56:12.130Z,45.10
2022-10-05T21:58:47.602Z,45.30
2022-10-05T22:01:23.176Z,45.30
2022-10-05T22:03:58.268Z,45.70
2022-10-05T22:06:34.367Z,46.40
2022-10-05T22:09:09.521Z,46.60
2022-10-05T22:11:47.883Z,46.90
2022-10-05T22:14:22.935Z,47.50
2022-10-05T22:16:57.930Z,48.00
2022-10-05T22:19:32.963Z,48.40
2022-10-05T22:22:11.781Z,48.70
2022-10-05T22:24:47.091Z,49.00
2022-10-05T22:27:24.840Z,49.50
2022-10-05T22:30:00.095Z,49.90
2022-10-05T22:32:35.132Z,50.20
2022-10-05T22:35:11.704Z,50.50
2022-10-05T22:37:46.904Z,50.70
2022-10-05T22:40:21.815Z,50.90
2022-10-05T22:42:56.973Z,51.50
2022-10-05T22:45:32.851Z,52.30
2022-10-05T22:48:07.933Z,52.50
2022-10-05T22:50:47.128Z,52.80
2022-10-05T22:53:22.035Z,53.30
2022-10-05T22:55:56.989Z,53.50
2022-10-05T22:58:31.948Z,54.00
2022-10-05T23:01:14.358Z,54.30
2022-10-05T23:03:49.470Z,54.70
2022-10-05T23:06:26.606Z,54.80
2022-10-05T23:09:01.609Z,55.30
2022-10-05T23:11:36.608Z,55.80
2022-10-05T23:14:11.748Z,56.70
2022-10-05T23:16:47.678Z,56.70
2022-10-05T23:19:23.346Z,57.00
2022-10-05T23:21:58.293Z,56.80
2022-10-05T23:24:33.903Z,56.60
2022-10-05T23:27:08.835Z,56.30
2022-10-05T23:29:44.115Z,56.30
2022-10-05T23:32:18.996Z,56.10
2022-10-05T23:34:53.964Z,56.10
2022-10-05T23:37:29.140Z,56.00
2022-10-05T23:40:06.325Z,56.10
2022-10-05T23:42:42.016Z,56.20
2022-10-05T23:45:17.091Z,56.20
2022-10-05T23:47:51.985Z,56.20
2022-10-05T23:50:26.987Z,56.40
2022-10-05T23:53:01.960Z,56.40
2022-10-05T23:55:37.407Z,56.40
2022-10-05T23:58:12.599Z,56.90
